This is the latest recevied weather packets stored in our database for station/object BMCB-28. If no packets are shown the sender has not sent any weather packets the latest 10 day(s).
| Time | Temp. | Humidity | Pressure | Rain* | Wind** | Luminosity | Snow |
|---|---|---|---|---|---|---|---|
| 1777959645 | 10° C | 10% | 1011.8 hPa | 0 mm | - | - | - |
| 1777956649 | 9.44° C | 10% | 1011.9 hPa | 0 mm | - | - | - |
| 1777956041 | 9.44° C | 10% | 1012 hPa | 0 mm | - | - | - |
| 1777955445 | 9.44° C | 10% | 1012 hPa | 0 mm | - | - | - |
| 1777952448 | 9.44° C | 10% | 1012.1 hPa | 0 mm | - | - | - |
| 1777951848 | 9.44° C | 99% | 1012.3 hPa | 0 mm | - | 0 W/m² | - |
| 1777948848 | 10° C | 99% | 1012.6 hPa | 0.25 mm | - | 0 W/m² | - |
| 1777944047 | 10° C | 99% | 1012.9 hPa | 0 mm | - | 0 W/m² | - |
| 1777942243 | 10° C | 99% | 1013 hPa | 0 mm | - | 0 W/m² | - |
| 1777935655 | 10° C | 99% | 1013.9 hPa | 0.25 mm | - | 0 W/m² | - |
| 1777935057 | 10° C | 99% | 1014 hPa | 0.25 mm | - | 0 W/m² | - |
| 1777932056 | 10° C | 99% | 1014.5 hPa | 0 mm | - | 0 W/m² | - |
| 1777931467 | 10° C | 99% | 1014.6 hPa | 0 mm | - | 0 W/m² | - |
| 1777927262 | 10° C | 98% | 1014.8 hPa | 0.25 mm | - | 0 W/m² | - |
| 1777924862 | 10° C | 98% | 1015 hPa | 0 mm | - | 0 W/m² | - |
| 1777920057 | 10.56° C | 97% | 1014.6 hPa | 0.51 mm | - | 2 W/m² | - |
| 1777915860 | 10.56° C | 95% | 1014.9 hPa | 0 mm | - | 6 W/m² | - |
| 1777914658 | 11.11° C | 94% | 1014.9 hPa | 0 mm | - | 16 W/m² | - |
| 1777909258 | 11.67° C | 93% | 1014.9 hPa | 0.25 mm | - | 94 W/m² | - |
| 1777908054 | 11.67° C | 91% | 1015 hPa | 0.25 mm | - | 132 W/m² | - |
| 1777900847 | 11.67° C | 93% | 1016 hPa | 2.54 mm | - | 138 W/m² | - |
| 1777899650 | 11.67° C | 94% | 1016 hPa | 2.29 mm | - | 112 W/m² | - |
| 1777896047 | 14.44° C | 84% | 1015.1 hPa | 0 mm | - | 188 W/m² | - |
| 1777893049 | 13.89° C | 85% | 1015.4 hPa | 0 mm | - | 282 W/m² | - |
| 1777891249 | 13.89° C | 84% | 1015.6 hPa | 0 mm | - | 168 W/m² | - |
* Rain latest hour (hover to see other rain measurements)
** Current wind speed in m/s (hover to see current wind gust speed)